createdAt,value
2023-03-29T00:01:00.187Z,5.10
2023-03-29T00:03:27.902Z,5.10
2023-03-29T00:06:03.021Z,5.10
2023-03-29T00:08:31.433Z,5.10
2023-03-29T00:10:59.311Z,5.10
2023-03-29T00:13:27.304Z,5.00
2023-03-29T00:15:54.324Z,5.10
2023-03-29T00:18:21.105Z,5.00
2023-03-29T00:20:54.334Z,5.10
2023-03-29T00:23:22.907Z,5.00
2023-03-29T00:25:49.638Z,5.00
2023-03-29T00:28:16.354Z,5.00
2023-03-29T00:30:43.127Z,5.00
2023-03-29T00:33:09.872Z,4.90
2023-03-29T00:35:38.207Z,4.90
2023-03-29T00:38:06.099Z,4.90
2023-03-29T00:40:33.473Z,4.90
2023-03-29T00:43:00.532Z,4.90
2023-03-29T00:45:30.523Z,4.90
2023-03-29T00:48:05.799Z,4.90
2023-03-29T00:50:39.233Z,4.90
2023-03-29T00:53:05.943Z,5.00
2023-03-29T00:55:36.284Z,5.00
2023-03-29T00:58:04.924Z,5.00
2023-03-29T01:00:35.259Z,5.10
2023-03-29T01:03:06.968Z,5.10
2023-03-29T01:05:38.130Z,5.10
2023-03-29T01:08:07.468Z,5.10
2023-03-29T01:10:34.242Z,5.20
2023-03-29T01:13:04.746Z,5.20
2023-03-29T01:15:31.805Z,5.20
2023-03-29T01:18:01.831Z,5.20
2023-03-29T01:20:48.949Z,5.20
2023-03-29T01:23:19.222Z,5.20
2023-03-29T01:25:51.946Z,5.20
2023-03-29T01:28:21.240Z,5.20
2023-03-29T01:30:54.276Z,5.20
2023-03-29T01:33:23.708Z,5.30
2023-03-29T01:36:01.394Z,5.30
2023-03-29T01:38:31.993Z,5.30
2023-03-29T01:40:58.773Z,5.30
2023-03-29T01:43:36.089Z,5.30
2023-03-29T01:46:04.961Z,5.30
2023-03-29T01:48:36.277Z,5.40
2023-03-29T01:51:06.415Z,5.40
2023-03-29T01:53:36.663Z,5.40
2023-03-29T01:56:05.686Z,5.40
2023-03-29T01:58:34.745Z,5.40
2023-03-29T02:01:05.592Z,5.40
2023-03-29T02:03:33.807Z,5.40
2023-03-29T02:06:01.218Z,5.40
2023-03-29T02:08:29.405Z,5.40
2023-03-29T02:10:57.501Z,5.40
2023-03-29T02:13:24.295Z,5.50
2023-03-29T02:15:51.032Z,5.40
2023-03-29T02:18:18.618Z,5.50
2023-03-29T02:20:47.242Z,5.50
2023-03-29T02:23:17.967Z,5.50
2023-03-29T02:25:45.755Z,5.50
2023-03-29T02:28:12.935Z,5.50
2023-03-29T02:30:56.153Z,5.50
2023-03-29T02:33:46.403Z,5.50
2023-03-29T02:36:23.776Z,5.50
2023-03-29T02:38:52.653Z,5.50
2023-03-29T02:41:20.453Z,5.60
2023-03-29T02:43:48.336Z,5.60
2023-03-29T02:46:16.635Z,5.60
2023-03-29T02:48:45.054Z,5.60
2023-03-29T02:51:19.821Z,5.70
2023-03-29T02:53:51.600Z,5.70
2023-03-29T02:56:19.530Z,5.70
2023-03-29T02:58:46.287Z,5.70
2023-03-29T03:01:13.422Z,5.70
2023-03-29T03:03:41.250Z,5.80
2023-03-29T03:06:09.224Z,5.80
2023-03-29T03:08:36.195Z,5.80
2023-03-29T03:11:03.149Z,5.80
2023-03-29T03:13:30.761Z,5.80
2023-03-29T03:15:57.564Z,5.80
2023-03-29T03:18:24.333Z,5.80
2023-03-29T03:20:57.524Z,5.90
2023-03-29T03:23:24.874Z,5.90
2023-03-29T03:25:52.640Z,5.90
2023-03-29T03:28:19.877Z,6.00
2023-03-29T03:30:46.637Z,6.00
2023-03-29T03:33:32.593Z,6.00
2023-03-29T03:36:31.473Z,6.10
2023-03-29T03:38:58.159Z,6.10
2023-03-29T03:41:26.256Z,6.10
2023-03-29T03:43:53.271Z,6.10
2023-03-29T03:46:20.182Z,6.10
2023-03-29T03:48:46.981Z,6.10
2023-03-29T03:51:23.195Z,6.10
2023-03-29T03:53:51.612Z,6.20
2023-03-29T03:56:41.066Z,6.20
2023-03-29T03:59:13.555Z,6.20
2023-03-29T04:01:55.913Z,6.20
2023-03-29T04:04:24.622Z,6.30
2023-03-29T04:07:02.704Z,6.30
2023-03-29T04:09:33.393Z,6.30
2023-03-29T04:12:17.292Z,6.30
2023-03-29T04:14:44.717Z,6.30
2023-03-29T04:17:31.725Z,6.30
2023-03-29T04:20:02.196Z,6.40
2023-03-29T04:22:32.309Z,6.40
2023-03-29T04:24:59.015Z,6.40
2023-03-29T04:27:34.656Z,6.40
2023-03-29T04:30:07.164Z,6.30
2023-03-29T04:33:06.392Z,6.30
2023-03-29T04:35:34.803Z,6.30
2023-03-29T04:38:04.236Z,6.30
2023-03-29T04:40:31.004Z,6.30
2023-03-29T04:43:08.551Z,6.30
2023-03-29T04:45:38.027Z,6.30
2023-03-29T04:48:32.243Z,6.20
2023-03-29T04:50:59.515Z,6.20
2023-03-29T04:53:26.366Z,6.20
2023-03-29T04:55:55.451Z,6.20
2023-03-29T04:58:42.183Z,6.20
2023-03-29T05:01:09.116Z,6.20
2023-03-29T05:03:40.177Z,6.30
2023-03-29T05:06:18.792Z,6.20
2023-03-29T05:08:46.004Z,6.20
2023-03-29T05:11:27.503Z,6.30
2023-03-29T05:13:57.073Z,6.30
2023-03-29T05:16:26.310Z,6.30
2023-03-29T05:18:56.137Z,6.30
2023-03-29T05:21:26.035Z,6.30
2023-03-29T05:23:53.245Z,6.40
2023-03-29T05:26:51.545Z,6.40
2023-03-29T05:29:18.648Z,6.40
2023-03-29T05:31:52.401Z,6.50
2023-03-29T05:34:19.932Z,6.50
2023-03-29T05:36:51.633Z,6.50
2023-03-29T05:39:18.907Z,6.50
2023-03-29T05:41:46.445Z,6.50
2023-03-29T05:44:28.456Z,6.60
2023-03-29T05:47:03.410Z,6.60
2023-03-29T05:49:30.258Z,6.60
2023-03-29T05:52:09.802Z,6.60
2023-03-29T05:54:37.810Z,6.60
2023-03-29T05:57:06.154Z,6.60
2023-03-29T05:59:33.689Z,6.60
2023-03-29T06:02:03.068Z,6.60
2023-03-29T06:04:30.719Z,6.60
2023-03-29T06:07:26.783Z,6.60
2023-03-29T06:10:31.600Z,6.60
2023-03-29T06:13:12.699Z,6.60
2023-03-29T06:15:40.132Z,6.60
2023-03-29T06:18:09.752Z,6.60
2023-03-29T06:20:37.443Z,6.60
2023-03-29T06:23:09.947Z,6.60
2023-03-29T06:25:36.987Z,6.70
2023-03-29T06:28:05.925Z,6.70
2023-03-29T06:30:34.512Z,6.80
2023-03-29T06:33:01.503Z,6.80
2023-03-29T06:35:46.886Z,6.90
2023-03-29T06:38:16.644Z,6.90
2023-03-29T06:41:07.078Z,6.90
2023-03-29T06:43:57.683Z,7.00
2023-03-29T06:46:31.620Z,7.00
2023-03-29T06:49:01.687Z,7.00
2023-03-29T06:51:46.914Z,7.10
2023-03-29T06:54:13.655Z,7.10
2023-03-29T06:56:49.316Z,7.10
2023-03-29T06:59:18.187Z,7.20
2023-03-29T07:01:55.156Z,7.30
2023-03-29T07:04:42.453Z,7.30
2023-03-29T07:07:20.207Z,7.30
2023-03-29T07:09:53.813Z,7.30
2023-03-29T07:12:23.475Z,7.40
2023-03-29T07:14:51.604Z,7.50
2023-03-29T07:17:18.554Z,7.50
2023-03-29T07:19:46.777Z,7.50
2023-03-29T07:22:33.737Z,7.60
2023-03-29T07:25:01.844Z,7.70
2023-03-29T07:27:29.539Z,7.70
2023-03-29T07:29:56.891Z,7.80
2023-03-29T07:32:23.681Z,7.90
2023-03-29T07:35:08.689Z,7.90
2023-03-29T07:37:37.361Z,8.00
2023-03-29T07:40:12.590Z,8.00
2023-03-29T07:42:55.440Z,8.00
2023-03-29T07:45:26.776Z,8.10
2023-03-29T07:47:59.778Z,8.10
2023-03-29T07:50:32.747Z,8.20
2023-03-29T07:53:02.895Z,8.30
2023-03-29T07:55:31.812Z,8.30
2023-03-29T07:58:07.087Z,8.30
2023-03-29T08:00:35.440Z,8.30
2023-03-29T08:03:22.690Z,8.40
2023-03-29T08:05:49.632Z,8.50
2023-03-29T08:08:17.145Z,8.60
2023-03-29T08:11:06.326Z,8.60
2023-03-29T08:13:39.232Z,8.70
2023-03-29T08:16:24.427Z,8.80
2023-03-29T08:18:59.583Z,8.90
2023-03-29T08:21:36.400Z,8.90
2023-03-29T08:24:03.317Z,8.90
2023-03-29T08:26:46.792Z,9.00
2023-03-29T08:29:16.034Z,9.10
2023-03-29T08:31:43.881Z,9.20
2023-03-29T08:34:12.940Z,9.30
2023-03-29T08:36:55.665Z,9.50
2023-03-29T08:39:32.882Z,9.60
2023-03-29T08:42:42.570Z,9.60
2023-03-29T08:45:27.879Z,9.70
2023-03-29T08:48:16.352Z,9.80
2023-03-29T08:50:47.861Z,9.90
2023-03-29T08:53:29.059Z,10.00
2023-03-29T08:56:11.015Z,10.10
2023-03-29T08:58:57.055Z,10.10
2023-03-29T09:01:30.287Z,10.10
2023-03-29T09:04:13.929Z,10.10
2023-03-29T09:06:52.250Z,10.20
2023-03-29T09:09:23.919Z,10.20
2023-03-29T09:11:52.427Z,10.20
2023-03-29T09:14:20.258Z,10.10
2023-03-29T09:16:56.236Z,10.00
2023-03-29T09:19:42.463Z,10.00
2023-03-29T09:22:16.508Z,10.00
2023-03-29T09:25:06.657Z,10.00
2023-03-29T09:27:42.298Z,10.10
2023-03-29T09:30:30.677Z,10.20
2023-03-29T09:33:10.532Z,10.20
2023-03-29T09:36:17.387Z,10.30
2023-03-29T09:38:50.916Z,10.40
2023-03-29T09:41:24.547Z,10.50
2023-03-29T09:43:52.151Z,10.50
2023-03-29T09:46:30.246Z,10.60
2023-03-29T09:48:57.200Z,10.70
2023-03-29T09:51:26.959Z,10.80
2023-03-29T09:53:56.351Z,11.00
2023-03-29T09:56:41.787Z,11.10
2023-03-29T09:59:13.319Z,11.20
2023-03-29T10:01:41.721Z,11.20
2023-03-29T10:04:10.248Z,11.30
2023-03-29T10:06:47.410Z,11.50
2023-03-29T10:09:16.301Z,11.60
2023-03-29T10:11:51.274Z,11.60
2023-03-29T10:14:21.191Z,11.80
2023-03-29T10:16:54.349Z,11.80
2023-03-29T10:19:22.903Z,11.80
2023-03-29T10:21:50.381Z,11.80
2023-03-29T10:24:21.252Z,11.90
2023-03-29T10:26:49.354Z,12.00
2023-03-29T10:29:16.091Z,12.10
2023-03-29T10:31:43.282Z,12.10
2023-03-29T10:34:12.108Z,12.00
2023-03-29T10:36:41.226Z,11.90
2023-03-29T10:39:10.265Z,11.90
2023-03-29T10:41:37.425Z,12.00
2023-03-29T10:44:04.908Z,12.00
2023-03-29T10:46:33.315Z,12.10
2023-03-29T10:49:04.506Z,12.30
2023-03-29T10:51:32.220Z,12.30
2023-03-29T10:53:59.356Z,12.50
2023-03-29T10:56:32.065Z,12.70
2023-03-29T10:59:31.270Z,12.80
2023-03-29T11:02:08.038Z,12.90
2023-03-29T11:04:42.790Z,13.10
2023-03-29T11:07:15.457Z,13.20
2023-03-29T11:09:44.989Z,13.30
2023-03-29T11:12:20.956Z,13.30
2023-03-29T11:14:54.569Z,13.20
2023-03-29T11:17:21.443Z,13.20
2023-03-29T11:19:53.845Z,13.30
2023-03-29T11:22:41.265Z,13.50
2023-03-29T11:25:25.783Z,13.70
2023-03-29T11:27:56.192Z,13.80
2023-03-29T11:30:23.911Z,13.90
2023-03-29T11:33:16.793Z,14.00
2023-03-29T11:36:01.787Z,14.00
2023-03-29T11:38:43.355Z,14.20
2023-03-29T11:41:19.630Z,14.30
2023-03-29T11:43:53.691Z,14.30
2023-03-29T11:46:41.716Z,14.40
2023-03-29T11:49:15.213Z,14.50
2023-03-29T11:51:43.988Z,14.60
2023-03-29T11:54:16.203Z,14.70
2023-03-29T11:56:52.176Z,14.80
2023-03-29T11:59:24.607Z,14.90
2023-03-29T12:01:56.452Z,14.90
2023-03-29T12:04:31.346Z,15.10
2023-03-29T12:07:17.202Z,15.30
2023-03-29T12:09:55.539Z,15.50
2023-03-29T12:12:25.432Z,15.60
2023-03-29T12:15:01.272Z,15.70
2023-03-29T12:17:31.360Z,15.70
2023-03-29T12:20:13.864Z,15.50
2023-03-29T12:22:45.357Z,15.50
2023-03-29T12:25:18.062Z,15.50
2023-03-29T12:27:46.012Z,15.50
2023-03-29T12:30:18.463Z,15.40
2023-03-29T12:33:04.168Z,15.40
2023-03-29T12:35:59.444Z,15.20
2023-03-29T12:38:45.093Z,15.30
2023-03-29T12:41:35.613Z,15.40
2023-03-29T12:44:22.503Z,15.40
2023-03-29T12:46:54.385Z,15.50
2023-03-29T12:49:29.494Z,15.50
2023-03-29T12:51:58.722Z,15.60
2023-03-29T12:54:28.357Z,15.60
2023-03-29T12:56:58.120Z,15.50
2023-03-29T12:59:27.219Z,15.50
2023-03-29T13:02:03.459Z,15.40
2023-03-29T13:04:37.927Z,15.30
2023-03-29T13:07:05.907Z,15.30
2023-03-29T13:09:36.513Z,15.10
2023-03-29T13:12:05.714Z,15.00
2023-03-29T13:14:33.989Z,14.90
2023-03-29T13:17:11.902Z,14.80
2023-03-29T13:19:44.731Z,14.80
2023-03-29T13:22:23.477Z,14.70
2023-03-29T13:25:01.217Z,14.60
2023-03-29T13:27:31.656Z,14.50
2023-03-29T13:30:19.951Z,14.50
2023-03-29T13:33:03.449Z,14.40
2023-03-29T13:35:30.226Z,14.40
2023-03-29T13:38:05.238Z,14.40
2023-03-29T13:40:44.105Z,14.40
2023-03-29T13:43:19.643Z,14.50
2023-03-29T13:45:58.424Z,14.70
2023-03-29T13:48:27.110Z,14.80
2023-03-29T13:50:58.102Z,15.00
2023-03-29T13:53:33.011Z,15.20
2023-03-29T13:56:00.371Z,15.40
2023-03-29T13:58:27.363Z,15.40
2023-03-29T14:00:57.483Z,15.40
2023-03-29T14:03:29.630Z,15.50
2023-03-29T14:05:58.747Z,15.50
2023-03-29T14:08:25.666Z,15.50
2023-03-29T14:10:53.135Z,15.40
2023-03-29T14:13:22.219Z,15.30
2023-03-29T14:15:54.150Z,15.20
2023-03-29T14:18:22.451Z,15.30
2023-03-29T14:20:54.879Z,15.20
2023-03-29T14:23:23.333Z,15.20
2023-03-29T14:25:50.107Z,15.20
2023-03-29T14:28:24.088Z,15.30
2023-03-29T14:30:52.571Z,15.60
2023-03-29T14:33:27.303Z,15.70
2023-03-29T14:35:54.990Z,15.70
2023-03-29T14:38:22.676Z,15.70
2023-03-29T14:40:49.778Z,15.80
2023-03-29T14:43:24.046Z,15.90
2023-03-29T14:45:50.996Z,15.90
2023-03-29T14:48:17.868Z,15.80
2023-03-29T14:50:45.772Z,15.70
2023-03-29T14:53:22.779Z,15.80
2023-03-29T14:55:51.603Z,15.80
2023-03-29T14:58:21.417Z,15.90
2023-03-29T15:00:50.192Z,15.90
2023-03-29T15:03:17.533Z,15.90
2023-03-29T15:05:48.485Z,15.90
2023-03-29T15:08:18.326Z,15.90
2023-03-29T15:10:45.679Z,15.90
2023-03-29T15:13:17.367Z,15.80
2023-03-29T15:15:44.446Z,15.80
2023-03-29T15:18:13.916Z,15.80
2023-03-29T15:20:41.333Z,15.80
2023-03-29T15:23:08.339Z,15.80
2023-03-29T15:25:37.192Z,15.90
2023-03-29T15:28:04.009Z,15.90
2023-03-29T15:30:35.788Z,15.80
2023-03-29T15:33:13.193Z,15.80
2023-03-29T15:35:40.420Z,15.80
2023-03-29T15:38:07.218Z,15.80
2023-03-29T15:40:33.971Z,15.80
2023-03-29T15:43:01.013Z,15.80
2023-03-29T15:45:27.736Z,15.80
2023-03-29T15:47:54.615Z,15.90
2023-03-29T15:50:21.894Z,15.80
2023-03-29T15:52:48.656Z,15.80
2023-03-29T15:55:15.615Z,15.80
2023-03-29T15:57:47.260Z,15.70
2023-03-29T16:00:16.445Z,15.70
2023-03-29T16:02:43.368Z,15.70
2023-03-29T16:05:10.780Z,15.70
2023-03-29T16:07:37.495Z,15.70
2023-03-29T16:10:04.419Z,15.70
2023-03-29T16:12:31.328Z,15.70
2023-03-29T16:14:58.035Z,15.70
2023-03-29T16:17:24.765Z,15.80
2023-03-29T16:19:51.602Z,15.70
2023-03-29T16:22:18.330Z,15.70
2023-03-29T16:24:45.027Z,15.70
2023-03-29T16:27:11.747Z,15.70
2023-03-29T16:29:38.464Z,15.60
2023-03-29T16:32:06.869Z,15.60
2023-03-29T16:34:33.980Z,15.50
2023-03-29T16:37:00.923Z,15.50
2023-03-29T16:39:27.687Z,15.50
2023-03-29T16:41:54.418Z,15.60
2023-03-29T16:44:26.865Z,15.50
2023-03-29T16:46:54.116Z,15.50
2023-03-29T16:49:21.389Z,15.50
2023-03-29T16:51:48.222Z,15.40
2023-03-29T16:54:15.380Z,15.40
2023-03-29T16:56:42.243Z,15.40
2023-03-29T16:59:09.704Z,15.20
2023-03-29T17:01:36.760Z,15.20
2023-03-29T17:04:03.701Z,15.20
2023-03-29T17:06:32.476Z,15.20
2023-03-29T17:08:59.633Z,15.10
2023-03-29T17:11:28.129Z,15.10
2023-03-29T17:13:55.209Z,15.10
2023-03-29T17:16:22.048Z,15.00
2023-03-29T17:18:48.921Z,15.10
2023-03-29T17:21:15.804Z,15.00
2023-03-29T17:23:42.922Z,15.00
2023-03-29T17:26:09.881Z,15.00
2023-03-29T17:28:36.969Z,15.00
2023-03-29T17:31:04.989Z,15.00
2023-03-29T17:33:31.840Z,15.00
2023-03-29T17:35:58.593Z,15.00
2023-03-29T17:38:26.698Z,14.90
2023-03-29T17:40:53.950Z,14.90
2023-03-29T17:43:21.259Z,14.90
2023-03-29T17:45:51.762Z,14.90
2023-03-29T17:48:19.290Z,14.80
2023-03-29T17:50:46.139Z,14.80
2023-03-29T17:53:13.329Z,14.80
2023-03-29T17:55:40.899Z,14.80
2023-03-29T17:58:08.144Z,14.80
2023-03-29T18:00:35.590Z,14.80
2023-03-29T18:03:02.443Z,14.80
2023-03-29T18:05:29.511Z,14.80
2023-03-29T18:07:56.438Z,14.70
2023-03-29T18:10:23.513Z,14.70
2023-03-29T18:12:50.203Z,14.70
2023-03-29T18:15:17.421Z,14.70
2023-03-29T18:17:44.808Z,14.70
2023-03-29T18:20:12.291Z,14.70
2023-03-29T18:22:39.686Z,14.70
2023-03-29T18:25:07.360Z,14.70
2023-03-29T18:27:34.076Z,14.70
2023-03-29T18:30:01.612Z,14.70
2023-03-29T18:32:28.447Z,14.70
2023-03-29T18:34:55.629Z,14.70
2023-03-29T18:37:22.351Z,14.70
2023-03-29T18:39:49.192Z,14.70
2023-03-29T18:42:15.995Z,14.60
2023-03-29T18:44:42.745Z,14.60
2023-03-29T18:47:09.526Z,14.60
2023-03-29T18:49:36.619Z,14.60
2023-03-29T18:52:04.623Z,14.50
2023-03-29T18:54:31.538Z,14.50
2023-03-29T18:56:59.376Z,14.40
2023-03-29T18:59:26.290Z,14.40
2023-03-29T19:01:53.091Z,14.40
2023-03-29T19:04:19.960Z,14.30
2023-03-29T19:06:50.417Z,14.30
2023-03-29T19:09:19.118Z,14.40
2023-03-29T19:11:47.885Z,14.30
2023-03-29T19:14:14.809Z,14.30
2023-03-29T19:16:42.823Z,14.30
2023-03-29T19:19:10.634Z,14.20
2023-03-29T19:21:38.421Z,14.20
2023-03-29T19:24:05.510Z,14.20
2023-03-29T19:26:33.388Z,14.20
2023-03-29T19:29:00.886Z,14.20
2023-03-29T19:31:27.811Z,14.20
2023-03-29T19:33:54.938Z,14.20
2023-03-29T19:36:22.129Z,14.20
2023-03-29T19:38:48.874Z,14.10
2023-03-29T19:41:15.854Z,14.10
2023-03-29T19:43:42.697Z,14.10
2023-03-29T19:46:10.620Z,14.20
2023-03-29T19:48:38.120Z,14.20
2023-03-29T19:51:05.254Z,14.20
2023-03-29T19:53:32.310Z,14.20
2023-03-29T19:55:59.603Z,14.20
2023-03-29T19:58:26.345Z,14.20
2023-03-29T20:00:53.941Z,14.20
2023-03-29T20:03:23.171Z,14.20
2023-03-29T20:05:51.650Z,14.20
2023-03-29T20:08:18.335Z,14.20
2023-03-29T20:10:45.116Z,14.20
2023-03-29T20:13:11.886Z,14.20
2023-03-29T20:15:38.590Z,14.10
2023-03-29T20:18:05.804Z,14.10
2023-03-29T20:20:35.606Z,14.10
2023-03-29T20:23:05.269Z,14.10
2023-03-29T20:25:36.073Z,14.10
2023-03-29T20:28:03.813Z,14.10
2023-03-29T20:30:30.654Z,14.00
2023-03-29T20:32:57.472Z,14.00
2023-03-29T20:35:24.456Z,14.00
2023-03-29T20:37:51.649Z,14.00
2023-03-29T20:40:18.512Z,14.00
2023-03-29T20:42:46.247Z,14.00
2023-03-29T20:45:18.331Z,13.90
2023-03-29T20:47:57.576Z,14.00
2023-03-29T20:50:28.385Z,13.90
2023-03-29T20:52:55.410Z,13.90
2023-03-29T20:55:22.862Z,14.00
2023-03-29T20:57:50.790Z,13.90
2023-03-29T21:00:19.531Z,13.90
2023-03-29T21:02:46.691Z,13.90
2023-03-29T21:05:13.524Z,13.90
2023-03-29T21:07:40.282Z,13.90
2023-03-29T21:10:07.305Z,13.90
2023-03-29T21:12:33.992Z,13.90
2023-03-29T21:15:02.355Z,13.90
2023-03-29T21:17:29.270Z,13.80
2023-03-29T21:19:56.168Z,13.80
2023-03-29T21:22:23.219Z,13.80
2023-03-29T21:24:50.381Z,13.80
2023-03-29T21:27:17.839Z,13.80
2023-03-29T21:29:44.603Z,13.80
2023-03-29T21:32:11.557Z,13.80
2023-03-29T21:34:38.291Z,13.80
2023-03-29T21:37:04.987Z,13.80
2023-03-29T21:39:32.091Z,13.80
2023-03-29T21:41:59.436Z,13.70
2023-03-29T21:44:26.344Z,13.70
2023-03-29T21:46:53.216Z,13.70
2023-03-29T21:49:20.281Z,13.70
2023-03-29T21:51:47.004Z,13.80
2023-03-29T21:54:13.730Z,13.70
2023-03-29T21:56:40.637Z,13.70
2023-03-29T21:59:07.395Z,13.80
2023-03-29T22:01:34.265Z,13.80
2023-03-29T22:04:01.012Z,13.80
2023-03-29T22:06:27.714Z,13.80
2023-03-29T22:08:54.498Z,13.80
2023-03-29T22:11:21.418Z,13.80
2023-03-29T22:13:48.177Z,13.70
2023-03-29T22:16:18.099Z,13.70
2023-03-29T22:18:52.438Z,13.80
2023-03-29T22:21:22.415Z,13.80
2023-03-29T22:23:50.761Z,13.80
2023-03-29T22:26:19.023Z,13.70
2023-03-29T22:28:45.948Z,13.70
2023-03-29T22:31:16.978Z,13.70
2023-03-29T22:33:43.830Z,13.70
2023-03-29T22:36:15.312Z,13.70
2023-03-29T22:38:42.133Z,13.70
2023-03-29T22:41:08.871Z,13.70
2023-03-29T22:43:36.576Z,13.70
2023-03-29T22:46:04.034Z,13.70
2023-03-29T22:48:30.943Z,13.80
2023-03-29T22:50:57.964Z,13.80
2023-03-29T22:53:24.936Z,13.90
2023-03-29T22:55:51.687Z,13.90
2023-03-29T22:58:18.660Z,13.90
2023-03-29T23:00:46.078Z,14.00
2023-03-29T23:03:12.872Z,14.00
2023-03-29T23:05:39.584Z,13.90
2023-03-29T23:08:07.009Z,13.90
2023-03-29T23:10:33.741Z,13.90
2023-03-29T23:13:10.752Z,13.90
2023-03-29T23:15:38.350Z,13.90
2023-03-29T23:18:05.574Z,13.90
2023-03-29T23:20:32.362Z,13.80
2023-03-29T23:22:59.385Z,13.90
2023-03-29T23:25:26.418Z,13.90
2023-03-29T23:27:53.636Z,13.80
2023-03-29T23:30:21.623Z,13.90
2023-03-29T23:32:52.406Z,13.90
2023-03-29T23:35:19.246Z,13.90
2023-03-29T23:37:46.822Z,13.80
2023-03-29T23:40:14.106Z,13.80
2023-03-29T23:42:41.915Z,13.80
2023-03-29T23:45:09.801Z,13.80
2023-03-29T23:47:36.863Z,13.90
2023-03-29T23:50:04.144Z,13.90
2023-03-29T23:52:34.385Z,13.90
2023-03-29T23:55:01.507Z,13.90
2023-03-29T23:57:28.634Z,13.90
2023-03-29T23:59:56.119Z,13.90
